sensor_id;sensor_type;location;lat;lon;timestamp;P1;durP1;ratioP1;P2;durP2;ratioP2
69779;SDS011;57052;55.602;38.096;2022-07-23T00:00:14;13.27;;;7.57;;
69779;SDS011;57052;55.602;38.096;2022-07-23T00:02:40;13.57;;;6.85;;
69779;SDS011;57052;55.602;38.096;2022-07-23T00:05:06;12.98;;;7.50;;
69779;SDS011;57052;55.602;38.096;2022-07-23T00:07:32;10.88;;;6.63;;
69779;SDS011;57052;55.602;38.096;2022-07-23T00:09:58;15.13;;;7.15;;
69779;SDS011;57052;55.602;38.096;2022-07-23T00:12:24;11.65;;;6.93;;
69779;SDS011;57052;55.602;38.096;2022-07-23T00:14:49;10.90;;;6.53;;
69779;SDS011;57052;55.602;38.096;2022-07-23T00:17:15;12.65;;;7.22;;
69779;SDS011;57052;55.602;38.096;2022-07-23T00:19:41;11.80;;;6.72;;
69779;SDS011;57052;55.602;38.096;2022-07-23T00:22:06;14.35;;;7.32;;
69779;SDS011;57052;55.602;38.096;2022-07-23T00:24:32;10.52;;;6.50;;
69779;SDS011;57052;55.602;38.096;2022-07-23T00:26:57;10.45;;;6.95;;
69779;SDS011;57052;55.602;38.096;2022-07-23T00:29:23;12.43;;;6.95;;
69779;SDS011;57052;55.602;38.096;2022-07-23T00:31:48;12.70;;;6.70;;
69779;SDS011;57052;55.602;38.096;2022-07-23T00:34:14;9.07;;;6.50;;
69779;SDS011;57052;55.602;38.096;2022-07-23T00:36:40;11.27;;;6.55;;
69779;SDS011;57052;55.602;38.096;2022-07-23T00:39:06;10.80;;;6.00;;
69779;SDS011;57052;55.602;38.096;2022-07-23T00:41:32;10.75;;;6.50;;
69779;SDS011;57052;55.602;38.096;2022-07-23T00:44:13;8.88;;;6.20;;
69779;SDS011;57052;55.602;38.096;2022-07-23T00:46:58;9.37;;;5.87;;
69779;SDS011;57052;55.602;38.096;2022-07-23T00:49:28;13.10;;;6.72;;
69779;SDS011;57052;55.602;38.096;2022-07-23T00:51:55;8.80;;;6.13;;
69779;SDS011;57052;55.602;38.096;2022-07-23T00:54:22;12.27;;;6.95;;
69779;SDS011;57052;55.602;38.096;2022-07-23T00:56:49;8.60;;;6.05;;
69779;SDS011;57052;55.602;38.096;2022-07-23T00:59:15;8.65;;;5.88;;
69779;SDS011;57052;55.602;38.096;2022-07-23T01:01:41;11.27;;;6.40;;
69779;SDS011;57052;55.602;38.096;2022-07-23T01:04:09;9.93;;;6.05;;
69779;SDS011;57052;55.602;38.096;2022-07-23T01:06:36;10.02;;;6.18;;
69779;SDS011;57052;55.602;38.096;2022-07-23T01:09:06;13.52;;;8.00;;
69779;SDS011;57052;55.602;38.096;2022-07-23T01:11:35;16.55;;;10.30;;
69779;SDS011;57052;55.602;38.096;2022-07-23T01:16:54;22.67;;;12.43;;
69779;SDS011;57052;55.602;38.096;2022-07-23T01:19:19;24.10;;;13.32;;
69779;SDS011;57052;55.602;38.096;2022-07-23T01:21:49;19.35;;;12.18;;
69779;SDS011;57052;55.602;38.096;2022-07-23T01:24:16;17.75;;;11.60;;
69779;SDS011;57052;55.602;38.096;2022-07-23T01:26:44;17.77;;;11.02;;
69779;SDS011;57052;55.602;38.096;2022-07-23T01:29:11;18.63;;;10.15;;
69779;SDS011;57052;55.602;38.096;2022-07-23T01:31:37;17.38;;;9.95;;
69779;SDS011;57052;55.602;38.096;2022-07-23T01:34:03;16.80;;;9.48;;
69779;SDS011;57052;55.602;38.096;2022-07-23T01:36:29;16.20;;;10.45;;
69779;SDS011;57052;55.602;38.096;2022-07-23T01:38:55;18.35;;;10.40;;
69779;SDS011;57052;55.602;38.096;2022-07-23T01:41:21;16.40;;;10.32;;
69779;SDS011;57052;55.602;38.096;2022-07-23T01:43:46;17.17;;;12.07;;
69779;SDS011;57052;55.602;38.096;2022-07-23T01:46:12;21.42;;;13.35;;
69779;SDS011;57052;55.602;38.096;2022-07-23T01:48:38;20.50;;;13.43;;
69779;SDS011;57052;55.602;38.096;2022-07-23T01:51:04;22.40;;;13.80;;
69779;SDS011;57052;55.602;38.096;2022-07-23T01:53:30;15.98;;;11.07;;
69779;SDS011;57052;55.602;38.096;2022-07-23T01:55:58;14.07;;;9.38;;
69779;SDS011;57052;55.602;38.096;2022-07-23T01:58:25;12.82;;;8.95;;
69779;SDS011;57052;55.602;38.096;2022-07-23T02:00:52;13.93;;;9.48;;
69779;SDS011;57052;55.602;38.096;2022-07-23T02:03:18;18.88;;;11.00;;
69779;SDS011;57052;55.602;38.096;2022-07-23T02:05:43;18.25;;;11.63;;
69779;SDS011;57052;55.602;38.096;2022-07-23T02:08:09;20.27;;;13.20;;
69779;SDS011;57052;55.602;38.096;2022-07-23T02:10:35;21.95;;;15.00;;
69779;SDS011;57052;55.602;38.096;2022-07-23T02:13:00;23.48;;;16.92;;
69779;SDS011;57052;55.602;38.096;2022-07-23T02:15:26;27.02;;;17.73;;
69779;SDS011;57052;55.602;38.096;2022-07-23T02:17:52;25.25;;;17.67;;
69779;SDS011;57052;55.602;38.096;2022-07-23T02:20:17;25.52;;;16.50;;
69779;SDS011;57052;55.602;38.096;2022-07-23T02:22:43;20.08;;;13.57;;
69779;SDS011;57052;55.602;38.096;2022-07-23T02:25:09;18.52;;;13.55;;
69779;SDS011;57052;55.602;38.096;2022-07-23T02:27:36;16.58;;;10.68;;
69779;SDS011;57052;55.602;38.096;2022-07-23T02:30:02;12.18;;;8.45;;
69779;SDS011;57052;55.602;38.096;2022-07-23T02:32:29;12.07;;;7.80;;
69779;SDS011;57052;55.602;38.096;2022-07-23T02:34:54;12.13;;;7.90;;
69779;SDS011;57052;55.602;38.096;2022-07-23T02:37:20;11.57;;;7.32;;
69779;SDS011;57052;55.602;38.096;2022-07-23T02:39:46;14.23;;;7.88;;
69779;SDS011;57052;55.602;38.096;2022-07-23T02:42:13;14.95;;;9.27;;
69779;SDS011;57052;55.602;38.096;2022-07-23T02:44:40;19.20;;;11.75;;
69779;SDS011;57052;55.602;38.096;2022-07-23T02:47:06;22.48;;;13.55;;
69779;SDS011;57052;55.602;38.096;2022-07-23T02:49:31;27.20;;;17.67;;
69779;SDS011;57052;55.602;38.096;2022-07-23T02:51:57;29.08;;;18.27;;
69779;SDS011;57052;55.602;38.096;2022-07-23T02:54:23;27.70;;;19.13;;
69779;SDS011;57052;55.602;38.096;2022-07-23T02:56:48;28.52;;;19.55;;
69779;SDS011;57052;55.602;38.096;2022-07-23T02:59:16;17.58;;;13.32;;
69779;SDS011;57052;55.602;38.096;2022-07-23T03:01:42;17.77;;;11.10;;
69779;SDS011;57052;55.602;38.096;2022-07-23T03:04:08;15.63;;;9.90;;
69779;SDS011;57052;55.602;38.096;2022-07-23T03:06:34;12.27;;;8.00;;
69779;SDS011;57052;55.602;38.096;2022-07-23T03:08:59;10.63;;;7.07;;
69779;SDS011;57052;55.602;38.096;2022-07-23T03:11:25;9.60;;;6.40;;
69779;SDS011;57052;55.602;38.096;2022-07-23T03:13:50;9.68;;;5.85;;
69779;SDS011;57052;55.602;38.096;2022-07-23T03:16:16;10.10;;;6.10;;
69779;SDS011;57052;55.602;38.096;2022-07-23T03:18:41;9.45;;;6.30;;
69779;SDS011;57052;55.602;38.096;2022-07-23T03:21:07;13.05;;;6.13;;
69779;SDS011;57052;55.602;38.096;2022-07-23T03:23:33;11.45;;;6.00;;
69779;SDS011;57052;55.602;38.096;2022-07-23T03:25:59;8.10;;;5.78;;
69779;SDS011;57052;55.602;38.096;2022-07-23T03:28:25;11.75;;;6.18;;
69779;SDS011;57052;55.602;38.096;2022-07-23T03:30:50;7.60;;;5.70;;
69779;SDS011;57052;55.602;38.096;2022-07-23T03:33:16;10.40;;;6.15;;
69779;SDS011;57052;55.602;38.096;2022-07-23T03:35:43;9.65;;;5.95;;
69779;SDS011;57052;55.602;38.096;2022-07-23T03:38:09;10.93;;;6.47;;
69779;SDS011;57052;55.602;38.096;2022-07-23T03:40:35;10.02;;;6.05;;
69779;SDS011;57052;55.602;38.096;2022-07-23T03:43:00;8.18;;;6.00;;
69779;SDS011;57052;55.602;38.096;2022-07-23T03:45:26;9.18;;;5.55;;
69779;SDS011;57052;55.602;38.096;2022-07-23T03:47:52;10.45;;;5.55;;
69779;SDS011;57052;55.602;38.096;2022-07-23T03:50:18;7.85;;;5.60;;
69779;SDS011;57052;55.602;38.096;2022-07-23T03:52:43;11.20;;;5.30;;
69779;SDS011;57052;55.602;38.096;2022-07-23T03:55:09;9.35;;;5.80;;
69779;SDS011;57052;55.602;38.096;2022-07-23T03:57:36;10.35;;;5.90;;
69779;SDS011;57052;55.602;38.096;2022-07-23T04:00:02;10.57;;;5.70;;
69779;SDS011;57052;55.602;38.096;2022-07-23T04:02:33;8.40;;;5.28;;
69779;SDS011;57052;55.602;38.096;2022-07-23T04:04:59;9.27;;;5.50;;
69779;SDS011;57052;55.602;38.096;2022-07-23T04:07:26;10.10;;;5.68;;
69779;SDS011;57052;55.602;38.096;2022-07-23T04:09:51;9.55;;;5.63;;
69779;SDS011;57052;55.602;38.096;2022-07-23T04:12:17;8.18;;;5.53;;
69779;SDS011;57052;55.602;38.096;2022-07-23T04:14:43;9.88;;;5.60;;
69779;SDS011;57052;55.602;38.096;2022-07-23T04:17:09;7.63;;;5.05;;
69779;SDS011;57052;55.602;38.096;2022-07-23T04:19:34;8.50;;;5.32;;
69779;SDS011;57052;55.602;38.096;2022-07-23T04:22:05;8.48;;;5.40;;
69779;SDS011;57052;55.602;38.096;2022-07-23T04:24:31;9.23;;;5.55;;
69779;SDS011;57052;55.602;38.096;2022-07-23T04:26:57;9.48;;;5.70;;
69779;SDS011;57052;55.602;38.096;2022-07-23T04:29:23;8.57;;;5.60;;
69779;SDS011;57052;55.602;38.096;2022-07-23T04:31:49;8.63;;;5.50;;
69779;SDS011;57052;55.602;38.096;2022-07-23T04:34:15;9.82;;;5.55;;
69779;SDS011;57052;55.602;38.096;2022-07-23T04:36:40;10.15;;;5.40;;
69779;SDS011;57052;55.602;38.096;2022-07-23T04:39:06;8.85;;;5.50;;
69779;SDS011;57052;55.602;38.096;2022-07-23T04:41:32;8.52;;;5.30;;
69779;SDS011;57052;55.602;38.096;2022-07-23T04:43:59;7.35;;;4.97;;
69779;SDS011;57052;55.602;38.096;2022-07-23T04:46:25;8.13;;;5.47;;
69779;SDS011;57052;55.602;38.096;2022-07-23T04:48:51;12.90;;;5.20;;
69779;SDS011;57052;55.602;38.096;2022-07-23T04:51:16;9.45;;;5.30;;
69779;SDS011;57052;55.602;38.096;2022-07-23T04:53:42;7.57;;;5.22;;
69779;SDS011;57052;55.602;38.096;2022-07-23T04:56:08;10.38;;;5.65;;
69779;SDS011;57052;55.602;38.096;2022-07-23T04:58:33;7.15;;;5.15;;
69779;SDS011;57052;55.602;38.096;2022-07-23T05:00:59;7.72;;;4.97;;
69779;SDS011;57052;55.602;38.096;2022-07-23T05:03:24;10.68;;;5.05;;
69779;SDS011;57052;55.602;38.096;2022-07-23T05:05:50;10.68;;;5.88;;
69779;SDS011;57052;55.602;38.096;2022-07-23T05:08:16;9.15;;;5.90;;
69779;SDS011;57052;55.602;38.096;2022-07-23T05:10:41;7.30;;;4.88;;
69779;SDS011;57052;55.602;38.096;2022-07-23T05:13:07;9.45;;;5.65;;
69779;SDS011;57052;55.602;38.096;2022-07-23T05:15:32;9.50;;;5.60;;
69779;SDS011;57052;55.602;38.096;2022-07-23T05:17:58;8.95;;;5.60;;
69779;SDS011;57052;55.602;38.096;2022-07-23T05:20:24;8.00;;;5.30;;
69779;SDS011;57052;55.602;38.096;2022-07-23T05:22:49;8.13;;;5.50;;
69779;SDS011;57052;55.602;38.096;2022-07-23T05:25:15;7.47;;;5.45;;
69779;SDS011;57052;55.602;38.096;2022-07-23T05:27:41;9.00;;;5.40;;
69779;SDS011;57052;55.602;38.096;2022-07-23T05:30:06;8.30;;;5.97;;
69779;SDS011;57052;55.602;38.096;2022-07-23T05:32:32;8.43;;;5.50;;
69779;SDS011;57052;55.602;38.096;2022-07-23T05:34:58;8.05;;;5.57;;
69779;SDS011;57052;55.602;38.096;2022-07-23T05:37:24;10.70;;;6.10;;
69779;SDS011;57052;55.602;38.096;2022-07-23T05:39:49;10.75;;;6.28;;
69779;SDS011;57052;55.602;38.096;2022-07-23T05:42:15;8.90;;;5.63;;
69779;SDS011;57052;55.602;38.096;2022-07-23T05:44:40;8.68;;;5.70;;
69779;SDS011;57052;55.602;38.096;2022-07-23T05:47:06;8.73;;;5.57;;
69779;SDS011;57052;55.602;38.096;2022-07-23T05:49:31;11.30;;;5.72;;
69779;SDS011;57052;55.602;38.096;2022-07-23T05:51:57;10.32;;;6.05;;
69779;SDS011;57052;55.602;38.096;2022-07-23T05:54:23;9.80;;;5.65;;
69779;SDS011;57052;55.602;38.096;2022-07-23T05:56:48;9.55;;;5.43;;
69779;SDS011;57052;55.602;38.096;2022-07-23T05:59:15;7.95;;;5.57;;
69779;SDS011;57052;55.602;38.096;2022-07-23T06:01:41;9.95;;;5.10;;
69779;SDS011;57052;55.602;38.096;2022-07-23T06:04:07;7.80;;;5.80;;
69779;SDS011;57052;55.602;38.096;2022-07-23T06:06:32;9.77;;;5.43;;
69779;SDS011;57052;55.602;38.096;2022-07-23T06:08:58;9.05;;;5.72;;
69779;SDS011;57052;55.602;38.096;2022-07-23T06:11:24;8.02;;;5.60;;
69779;SDS011;57052;55.602;38.096;2022-07-23T06:13:49;9.32;;;5.55;;
69779;SDS011;57052;55.602;38.096;2022-07-23T06:16:15;11.73;;;5.93;;
69779;SDS011;57052;55.602;38.096;2022-07-23T06:18:41;8.18;;;5.97;;
69779;SDS011;57052;55.602;38.096;2022-07-23T06:21:06;11.23;;;5.68;;
69779;SDS011;57052;55.602;38.096;2022-07-23T06:23:32;8.20;;;5.35;;
69779;SDS011;57052;55.602;38.096;2022-07-23T06:25:57;9.73;;;5.45;;
69779;SDS011;57052;55.602;38.096;2022-07-23T06:28:23;8.45;;;5.60;;
69779;SDS011;57052;55.602;38.096;2022-07-23T06:30:48;12.93;;;5.55;;
69779;SDS011;57052;55.602;38.096;2022-07-23T06:33:14;8.90;;;5.25;;
69779;SDS011;57052;55.602;38.096;2022-07-23T06:35:39;8.80;;;6.43;;
69779;SDS011;57052;55.602;38.096;2022-07-23T06:38:05;8.88;;;6.03;;
69779;SDS011;57052;55.602;38.096;2022-07-23T06:40:31;8.40;;;5.25;;
69779;SDS011;57052;55.602;38.096;2022-07-23T06:42:56;8.85;;;5.57;;
69779;SDS011;57052;55.602;38.096;2022-07-23T06:45:22;7.82;;;5.70;;
69779;SDS011;57052;55.602;38.096;2022-07-23T06:47:48;6.70;;;5.35;;
69779;SDS011;57052;55.602;38.096;2022-07-23T06:50:13;7.22;;;5.20;;
69779;SDS011;57052;55.602;38.096;2022-07-23T06:52:41;7.32;;;5.45;;
69779;SDS011;57052;55.602;38.096;2022-07-23T06:55:06;8.18;;;5.57;;
69779;SDS011;57052;55.602;38.096;2022-07-23T06:57:32;9.57;;;5.78;;
69779;SDS011;57052;55.602;38.096;2022-07-23T06:59:57;8.02;;;5.57;;
69779;SDS011;57052;55.602;38.096;2022-07-23T07:02:23;8.00;;;5.50;;
69779;SDS011;57052;55.602;38.096;2022-07-23T07:04:49;8.50;;;5.70;;
69779;SDS011;57052;55.602;38.096;2022-07-23T07:07:15;8.55;;;5.90;;
69779;SDS011;57052;55.602;38.096;2022-07-23T07:09:40;8.95;;;6.15;;
69779;SDS011;57052;55.602;38.096;2022-07-23T07:12:06;8.35;;;5.85;;
69779;SDS011;57052;55.602;38.096;2022-07-23T07:14:31;9.10;;;5.78;;
69779;SDS011;57052;55.602;38.096;2022-07-23T07:16:57;7.50;;;5.95;;
69779;SDS011;57052;55.602;38.096;2022-07-23T07:19:23;7.75;;;5.97;;
69779;SDS011;57052;55.602;38.096;2022-07-23T07:21:48;8.52;;;6.07;;
69779;SDS011;57052;55.602;38.096;2022-07-23T07:24:14;9.20;;;6.15;;
69779;SDS011;57052;55.602;38.096;2022-07-23T07:26:39;7.55;;;5.78;;
69779;SDS011;57052;55.602;38.096;2022-07-23T07:29:05;7.40;;;5.90;;
69779;SDS011;57052;55.602;38.096;2022-07-23T07:31:31;9.60;;;6.18;;
69779;SDS011;57052;55.602;38.096;2022-07-23T07:33:57;11.82;;;5.75;;
69779;SDS011;57052;55.602;38.096;2022-07-23T07:36:23;7.68;;;6.05;;
69779;SDS011;57052;55.602;38.096;2022-07-23T07:38:49;11.70;;;5.57;;
69779;SDS011;57052;55.602;38.096;2022-07-23T07:41:14;9.50;;;5.97;;
69779;SDS011;57052;55.602;38.096;2022-07-23T07:43:41;8.32;;;5.80;;
69779;SDS011;57052;55.602;38.096;2022-07-23T07:46:06;9.77;;;5.80;;
69779;SDS011;57052;55.602;38.096;2022-07-23T07:48:38;8.85;;;5.85;;
69779;SDS011;57052;55.602;38.096;2022-07-23T07:51:04;8.65;;;5.68;;
69779;SDS011;57052;55.602;38.096;2022-07-23T07:53:30;9.13;;;6.03;;
69779;SDS011;57052;55.602;38.096;2022-07-23T07:55:56;8.10;;;5.93;;
69779;SDS011;57052;55.602;38.096;2022-07-23T07:58:21;10.45;;;6.53;;
69779;SDS011;57052;55.602;38.096;2022-07-23T08:00:47;8.23;;;5.95;;
69779;SDS011;57052;55.602;38.096;2022-07-23T08:03:13;7.93;;;5.93;;
69779;SDS011;57052;55.602;38.096;2022-07-23T08:05:38;8.98;;;5.57;;
69779;SDS011;57052;55.602;38.096;2022-07-23T08:08:04;7.90;;;5.95;;
69779;SDS011;57052;55.602;38.096;2022-07-23T08:10:29;8.73;;;6.13;;
69779;SDS011;57052;55.602;38.096;2022-07-23T08:12:56;8.52;;;6.40;;
69779;SDS011;57052;55.602;38.096;2022-07-23T08:15:24;8.18;;;6.20;;
69779;SDS011;57052;55.602;38.096;2022-07-23T08:17:52;8.98;;;6.30;;
69779;SDS011;57052;55.602;38.096;2022-07-23T08:20:18;8.90;;;6.05;;
69779;SDS011;57052;55.602;38.096;2022-07-23T08:22:46;10.82;;;6.20;;
69779;SDS011;57052;55.602;38.096;2022-07-23T08:25:15;9.88;;;6.28;;
69779;SDS011;57052;55.602;38.096;2022-07-23T08:27:41;9.20;;;6.38;;
69779;SDS011;57052;55.602;38.096;2022-07-23T08:30:07;10.02;;;6.75;;
69779;SDS011;57052;55.602;38.096;2022-07-23T08:32:33;7.95;;;5.97;;
69779;SDS011;57052;55.602;38.096;2022-07-23T08:35:12;9.13;;;6.55;;
69779;SDS011;57052;55.602;38.096;2022-07-23T08:37:38;9.63;;;6.55;;
69779;SDS011;57052;55.602;38.096;2022-07-23T08:40:04;9.35;;;6.72;;
69779;SDS011;57052;55.602;38.096;2022-07-23T08:42:30;9.23;;;6.18;;
69779;SDS011;57052;55.602;38.096;2022-07-23T08:45:00;9.13;;;6.38;;
69779;SDS011;57052;55.602;38.096;2022-07-23T08:47:28;9.05;;;6.43;;
69779;SDS011;57052;55.602;38.096;2022-07-23T08:49:55;8.90;;;6.10;;
69779;SDS011;57052;55.602;38.096;2022-07-23T08:52:21;8.15;;;6.25;;
69779;SDS011;57052;55.602;38.096;2022-07-23T08:54:48;8.27;;;6.30;;
69779;SDS011;57052;55.602;38.096;2022-07-23T08:57:14;7.78;;;6.18;;
69779;SDS011;57052;55.602;38.096;2022-07-23T08:59:40;9.70;;;6.90;;
69779;SDS011;57052;55.602;38.096;2022-07-23T09:02:06;8.60;;;6.35;;
69779;SDS011;57052;55.602;38.096;2022-07-23T09:04:31;11.63;;;6.82;;
69779;SDS011;57052;55.602;38.096;2022-07-23T09:06:57;10.15;;;6.95;;
69779;SDS011;57052;55.602;38.096;2022-07-23T09:09:23;9.52;;;7.00;;
69779;SDS011;57052;55.602;38.096;2022-07-23T09:12:07;8.98;;;6.72;;
69779;SDS011;57052;55.602;38.096;2022-07-23T09:14:44;8.63;;;6.30;;
69779;SDS011;57052;55.602;38.096;2022-07-23T09:17:17;9.25;;;6.70;;
69779;SDS011;57052;55.602;38.096;2022-07-23T09:19:43;8.15;;;6.35;;
69779;SDS011;57052;55.602;38.096;2022-07-23T09:22:23;8.35;;;6.50;;
69779;SDS011;57052;55.602;38.096;2022-07-23T09:30:18;9.18;;;6.57;;
69779;SDS011;57052;55.602;38.096;2022-07-23T09:33:03;9.13;;;6.53;;
69779;SDS011;57052;55.602;38.096;2022-07-23T09:35:46;9.15;;;7.13;;
69779;SDS011;57052;55.602;38.096;2022-07-23T09:38:20;10.00;;;6.78;;
69779;SDS011;57052;55.602;38.096;2022-07-23T09:41:11;8.85;;;6.50;;
69779;SDS011;57052;55.602;38.096;2022-07-23T09:43:39;9.45;;;6.95;;
69779;SDS011;57052;55.602;38.096;2022-07-23T09:46:21;10.13;;;6.80;;
69779;SDS011;57052;55.602;38.096;2022-07-23T09:48:51;10.43;;;6.88;;
69779;SDS011;57052;55.602;38.096;2022-07-23T09:51:18;9.55;;;6.50;;
69779;SDS011;57052;55.602;38.096;2022-07-23T09:54:02;8.68;;;6.68;;
69779;SDS011;57052;55.602;38.096;2022-07-23T09:56:29;9.10;;;6.32;;
69779;SDS011;57052;55.602;38.096;2022-07-23T09:58:56;9.50;;;6.97;;
69779;SDS011;57052;55.602;38.096;2022-07-23T10:01:37;9.15;;;6.75;;
69779;SDS011;57052;55.602;38.096;2022-07-23T10:04:04;9.63;;;6.38;;
69779;SDS011;57052;55.602;38.096;2022-07-23T10:06:31;8.98;;;6.85;;
69779;SDS011;57052;55.602;38.096;2022-07-23T10:08:58;9.13;;;7.13;;
69779;SDS011;57052;55.602;38.096;2022-07-23T10:11:24;10.18;;;7.38;;
69779;SDS011;57052;55.602;38.096;2022-07-23T10:13:53;9.45;;;7.13;;
69779;SDS011;57052;55.602;38.096;2022-07-23T10:16:28;9.48;;;7.07;;
69779;SDS011;57052;55.602;38.096;2022-07-23T10:18:54;8.77;;;6.80;;
69779;SDS011;57052;55.602;38.096;2022-07-23T10:30:03;9.05;;;6.57;;
69779;SDS011;57052;55.602;38.096;2022-07-23T10:35:29;10.80;;;7.90;;
69779;SDS011;57052;55.602;38.096;2022-07-23T10:38:07;8.23;;;6.60;;
69779;SDS011;57052;55.602;38.096;2022-07-23T10:40:38;12.25;;;7.35;;
69779;SDS011;57052;55.602;38.096;2022-07-23T10:43:23;12.02;;;7.20;;
69779;SDS011;57052;55.602;38.096;2022-07-23T10:45:48;9.80;;;7.35;;
69779;SDS011;57052;55.602;38.096;2022-07-23T10:48:23;11.60;;;7.80;;
69779;SDS011;57052;55.602;38.096;2022-07-23T10:51:06;11.85;;;7.43;;
69779;SDS011;57052;55.602;38.096;2022-07-23T10:56:49;9.52;;;7.53;;
69779;SDS011;57052;55.602;38.096;2022-07-23T10:59:15;10.27;;;6.78;;
69779;SDS011;57052;55.602;38.096;2022-07-23T11:01:40;10.27;;;7.32;;
69779;SDS011;57052;55.602;38.096;2022-07-23T11:04:06;9.23;;;6.75;;
69779;SDS011;57052;55.602;38.096;2022-07-23T11:09:26;9.88;;;7.15;;
69779;SDS011;57052;55.602;38.096;2022-07-23T11:17:35;12.68;;;7.18;;
69779;SDS011;57052;55.602;38.096;2022-07-23T11:22:35;10.00;;;7.53;;
69779;SDS011;57052;55.602;38.096;2022-07-23T11:25:01;9.23;;;7.35;;
69779;SDS011;57052;55.602;38.096;2022-07-23T11:27:41;8.73;;;6.95;;
69779;SDS011;57052;55.602;38.096;2022-07-23T11:30:11;9.85;;;6.93;;
69779;SDS011;57052;55.602;38.096;2022-07-23T11:33:37;9.95;;;7.43;;
69779;SDS011;57052;55.602;38.096;2022-07-23T11:35:39;8.80;;;7.25;;
69779;SDS011;57052;55.602;38.096;2022-07-23T11:40:49;9.63;;;7.07;;
69779;SDS011;57052;55.602;38.096;2022-07-23T11:43:17;9.15;;;7.32;;
69779;SDS011;57052;55.602;38.096;2022-07-23T11:45:45;9.25;;;6.80;;
69779;SDS011;57052;55.602;38.096;2022-07-23T11:48:37;8.73;;;7.10;;
69779;SDS011;57052;55.602;38.096;2022-07-23T11:51:01;11.02;;;7.25;;
69779;SDS011;57052;55.602;38.096;2022-07-23T11:53:28;13.85;;;6.90;;
69779;SDS011;57052;55.602;38.096;2022-07-23T11:58:31;9.77;;;7.07;;
69779;SDS011;57052;55.602;38.096;2022-07-23T12:00:57;9.07;;;7.10;;
69779;SDS011;57052;55.602;38.096;2022-07-23T12:03:22;11.55;;;7.47;;
69779;SDS011;57052;55.602;38.096;2022-07-23T12:05:48;11.63;;;7.80;;
69779;SDS011;57052;55.602;38.096;2022-07-23T12:08:14;10.93;;;8.27;;
69779;SDS011;57052;55.602;38.096;2022-07-23T12:10:40;13.88;;;7.85;;
69779;SDS011;57052;55.602;38.096;2022-07-23T12:13:12;8.63;;;6.97;;
69779;SDS011;57052;55.602;38.096;2022-07-23T12:15:49;9.32;;;7.57;;
69779;SDS011;57052;55.602;38.096;2022-07-23T12:18:18;9.68;;;7.05;;
69779;SDS011;57052;55.602;38.096;2022-07-23T12:20:48;8.85;;;7.03;;
69779;SDS011;57052;55.602;38.096;2022-07-23T12:23:16;9.05;;;7.07;;
69779;SDS011;57052;55.602;38.096;2022-07-23T12:25:44;10.32;;;7.15;;
69779;SDS011;57052;55.602;38.096;2022-07-23T12:28:11;11.35;;;7.07;;
69779;SDS011;57052;55.602;38.096;2022-07-23T12:30:46;9.50;;;7.30;;
69779;SDS011;57052;55.602;38.096;2022-07-23T12:33:15;10.85;;;7.50;;
69779;SDS011;57052;55.602;38.096;2022-07-23T12:35:47;9.27;;;7.25;;
69779;SDS011;57052;55.602;38.096;2022-07-23T12:38:14;8.23;;;6.75;;
69779;SDS011;57052;55.602;38.096;2022-07-23T12:40:45;9.27;;;6.75;;
69779;SDS011;57052;55.602;38.096;2022-07-23T12:43:20;8.00;;;6.75;;
69779;SDS011;57052;55.602;38.096;2022-07-23T12:45:54;8.90;;;7.10;;
69779;SDS011;57052;55.602;38.096;2022-07-23T12:48:29;9.70;;;6.90;;
69779;SDS011;57052;55.602;38.096;2022-07-23T12:50:59;10.82;;;7.35;;
69779;SDS011;57052;55.602;38.096;2022-07-23T12:53:28;9.68;;;7.10;;
69779;SDS011;57052;55.602;38.096;2022-07-23T13:03:57;9.10;;;6.82;;
69779;SDS011;57052;55.602;38.096;2022-07-23T13:06:37;11.60;;;7.00;;
69779;SDS011;57052;55.602;38.096;2022-07-23T13:09:08;9.32;;;6.70;;
69779;SDS011;57052;55.602;38.096;2022-07-23T13:11:35;8.05;;;7.10;;
69779;SDS011;57052;55.602;38.096;2022-07-23T13:14:01;8.40;;;6.93;;
69779;SDS011;57052;55.602;38.096;2022-07-23T13:16:28;10.25;;;7.25;;
69779;SDS011;57052;55.602;38.096;2022-07-23T13:18:54;7.85;;;6.65;;
69779;SDS011;57052;55.602;38.096;2022-07-23T13:21:21;9.55;;;7.07;;
69779;SDS011;57052;55.602;38.096;2022-07-23T13:23:47;11.05;;;7.70;;
69779;SDS011;57052;55.602;38.096;2022-07-23T13:26:13;11.52;;;7.13;;
69779;SDS011;57052;55.602;38.096;2022-07-23T13:28:39;8.23;;;6.85;;
69779;SDS011;57052;55.602;38.096;2022-07-23T13:31:05;7.80;;;6.60;;
69779;SDS011;57052;55.602;38.096;2022-07-23T13:33:30;9.68;;;7.20;;
69779;SDS011;57052;55.602;38.096;2022-07-23T13:35:56;8.40;;;7.05;;
69779;SDS011;57052;55.602;38.096;2022-07-23T13:38:22;9.40;;;6.88;;
69779;SDS011;57052;55.602;38.096;2022-07-23T13:40:49;9.70;;;6.72;;
69779;SDS011;57052;55.602;38.096;2022-07-23T13:43:17;10.32;;;7.38;;
69779;SDS011;57052;55.602;38.096;2022-07-23T13:45:44;9.35;;;6.55;;
69779;SDS011;57052;55.602;38.096;2022-07-23T13:48:11;8.93;;;6.50;;
69779;SDS011;57052;55.602;38.096;2022-07-23T13:50:38;9.95;;;6.80;;
69779;SDS011;57052;55.602;38.096;2022-07-23T13:53:05;10.02;;;6.80;;
69779;SDS011;57052;55.602;38.096;2022-07-23T13:55:32;9.30;;;7.18;;
69779;SDS011;57052;55.602;38.096;2022-07-23T13:57:58;9.45;;;7.03;;
69779;SDS011;57052;55.602;38.096;2022-07-23T14:00:25;8.77;;;6.80;;
69779;SDS011;57052;55.602;38.096;2022-07-23T14:02:51;9.13;;;6.82;;
69779;SDS011;57052;55.602;38.096;2022-07-23T14:05:17;9.68;;;7.22;;
69779;SDS011;57052;55.602;38.096;2022-07-23T14:07:43;9.38;;;6.63;;
69779;SDS011;57052;55.602;38.096;2022-07-23T14:10:10;9.88;;;6.63;;
69779;SDS011;57052;55.602;38.096;2022-07-23T14:12:36;8.27;;;6.78;;
69779;SDS011;57052;55.602;38.096;2022-07-23T14:15:03;8.43;;;6.45;;
69779;SDS011;57052;55.602;38.096;2022-07-23T14:17:30;9.15;;;6.93;;
69779;SDS011;57052;55.602;38.096;2022-07-23T14:19:56;8.93;;;6.90;;
69779;SDS011;57052;55.602;38.096;2022-07-23T14:22:22;8.48;;;6.65;;
69779;SDS011;57052;55.602;38.096;2022-07-23T14:24:48;9.18;;;6.85;;
69779;SDS011;57052;55.602;38.096;2022-07-23T14:27:14;9.10;;;6.78;;
69779;SDS011;57052;55.602;38.096;2022-07-23T14:29:40;9.43;;;6.78;;
69779;SDS011;57052;55.602;38.096;2022-07-23T14:32:05;7.80;;;6.78;;
69779;SDS011;57052;55.602;38.096;2022-07-23T14:34:31;10.57;;;7.07;;
69779;SDS011;57052;55.602;38.096;2022-07-23T14:36:57;8.85;;;6.55;;
69779;SDS011;57052;55.602;38.096;2022-07-23T14:39:23;9.68;;;6.88;;
69779;SDS011;57052;55.602;38.096;2022-07-23T14:41:49;8.55;;;6.57;;
69779;SDS011;57052;55.602;38.096;2022-07-23T14:44:14;10.95;;;7.15;;
69779;SDS011;57052;55.602;38.096;2022-07-23T14:46:40;9.10;;;6.47;;
69779;SDS011;57052;55.602;38.096;2022-07-23T14:49:06;8.70;;;6.93;;
69779;SDS011;57052;55.602;38.096;2022-07-23T14:51:32;9.38;;;6.95;;
69779;SDS011;57052;55.602;38.096;2022-07-23T14:53:58;9.05;;;6.40;;
69779;SDS011;57052;55.602;38.096;2022-07-23T14:56:23;8.40;;;6.78;;
69779;SDS011;57052;55.602;38.096;2022-07-23T14:58:49;8.48;;;7.00;;
69779;SDS011;57052;55.602;38.096;2022-07-23T15:01:15;8.75;;;6.75;;
69779;SDS011;57052;55.602;38.096;2022-07-23T15:03:40;9.57;;;7.18;;
69779;SDS011;57052;55.602;38.096;2022-07-23T15:06:06;8.45;;;6.90;;
69779;SDS011;57052;55.602;38.096;2022-07-23T15:08:32;11.95;;;8.13;;
69779;SDS011;57052;55.602;38.096;2022-07-23T15:10:57;12.35;;;7.97;;
69779;SDS011;57052;55.602;38.096;2022-07-23T15:13:23;14.45;;;8.15;;
69779;SDS011;57052;55.602;38.096;2022-07-23T15:15:49;11.30;;;8.18;;